createdAt,value
2022-10-07T00:00:49.316Z,89.99
2022-10-07T00:03:15.990Z,90.11
2022-10-07T00:05:42.558Z,90.42
2022-10-07T00:08:09.588Z,90.77
2022-10-07T00:10:43.238Z,90.66
2022-10-07T00:13:12.187Z,90.47
2022-10-07T00:15:39.291Z,90.16
2022-10-07T00:18:06.132Z,90.32
2022-10-07T00:20:38.282Z,90.64
2022-10-07T00:23:05.831Z,90.25
2022-10-07T00:25:35.969Z,90.33
2022-10-07T00:28:03.194Z,90.56
2022-10-07T00:30:29.964Z,90.49
2022-10-07T00:32:56.525Z,90.44
2022-10-07T00:35:23.041Z,90.67
2022-10-07T00:37:49.555Z,90.37
2022-10-07T00:40:16.293Z,90.29
2022-10-07T00:42:42.909Z,90.67
2022-10-07T00:45:15.158Z,90.18
2022-10-07T00:47:45.731Z,90.39
2022-10-07T00:50:21.239Z,90.02
2022-10-07T00:52:56.548Z,89.88
2022-10-07T00:55:26.096Z,90.07
2022-10-07T00:57:55.281Z,89.96
2022-10-07T01:00:24.157Z,90.19
2022-10-07T01:02:52.007Z,90.83
2022-10-07T01:05:19.304Z,90.84
2022-10-07T01:07:48.251Z,90.90
2022-10-07T01:10:19.833Z,91.04
2022-10-07T01:12:55.488Z,90.89
2022-10-07T01:15:40.241Z,90.87
2022-10-07T01:18:19.388Z,90.88
2022-10-07T01:21:21.619Z,91.01
2022-10-07T01:24:17.614Z,91.24
2022-10-07T01:27:14.095Z,91.22
2022-10-07T01:29:53.572Z,91.03
2022-10-07T01:32:33.151Z,90.95
2022-10-07T01:35:01.978Z,91.17
2022-10-07T01:37:36.117Z,90.89
2022-10-07T01:40:09.856Z,90.83
2022-10-07T01:42:36.925Z,91.03
2022-10-07T01:45:05.069Z,90.98
2022-10-07T01:47:31.726Z,91.11
2022-10-07T01:49:58.154Z,90.94
2022-10-07T01:52:47.193Z,91.76
2022-10-07T01:55:19.779Z,91.68
2022-10-07T01:58:10.716Z,91.56
2022-10-07T02:00:45.904Z,91.69
2022-10-07T02:03:24.834Z,91.77
2022-10-07T02:06:07.624Z,92.02
2022-10-07T02:08:42.321Z,91.56
2022-10-07T02:11:22.605Z,91.94
2022-10-07T02:14:07.345Z,92.07
2022-10-07T02:16:49.996Z,91.82
2022-10-07T02:19:25.704Z,91.84
2022-10-07T02:21:54.793Z,91.64
2022-10-07T02:24:26.023Z,91.82
2022-10-07T02:26:54.612Z,91.32
2022-10-07T02:29:23.211Z,91.51
2022-10-07T02:31:52.545Z,91.26
2022-10-07T02:34:23.070Z,91.54
2022-10-07T02:36:54.868Z,91.47
2022-10-07T02:39:21.702Z,91.49
2022-10-07T02:41:58.761Z,91.12
2022-10-07T02:44:38.878Z,91.63
2022-10-07T02:47:22.042Z,92.19
2022-10-07T02:49:53.281Z,91.84
2022-10-07T02:52:22.300Z,91.84
2022-10-07T02:54:56.337Z,91.58
2022-10-07T02:57:25.131Z,91.79
2022-10-07T02:59:54.725Z,92.05
2022-10-07T03:02:40.804Z,92.01
2022-10-07T03:05:09.263Z,92.16
2022-10-07T03:07:36.228Z,92.06
2022-10-07T03:10:04.838Z,91.62
2022-10-07T03:12:31.289Z,90.96
2022-10-07T03:14:58.361Z,91.19
2022-10-07T03:17:24.899Z,90.84
2022-10-07T03:19:51.386Z,91.24
2022-10-07T03:22:17.919Z,91.14
2022-10-07T03:24:44.416Z,90.44
2022-10-07T03:27:10.851Z,89.96
2022-10-07T03:29:37.625Z,89.42
2022-10-07T03:32:04.141Z,89.64
2022-10-07T03:34:31.742Z,90.32
2022-10-07T03:36:58.912Z,90.62
2022-10-07T03:39:25.493Z,90.54
2022-10-07T03:41:52.247Z,90.73
2022-10-07T03:44:22.586Z,90.67
2022-10-07T03:46:50.505Z,91.04
2022-10-07T03:49:18.084Z,91.21
2022-10-07T03:51:44.516Z,90.62
2022-10-07T03:54:13.857Z,91.14
2022-10-07T03:56:40.364Z,91.42
2022-10-07T03:59:10.082Z,91.62
2022-10-07T04:01:38.159Z,91.61
2022-10-07T04:04:04.676Z,91.50
2022-10-07T04:06:32.136Z,91.72
2022-10-07T04:08:58.717Z,91.70
2022-10-07T04:11:25.464Z,91.77
2022-10-07T04:13:52.766Z,91.63
2022-10-07T04:16:19.987Z,91.83
2022-10-07T04:18:47.384Z,91.82
2022-10-07T04:21:22.817Z,92.37
2022-10-07T04:23:49.662Z,92.04
2022-10-07T04:26:16.206Z,92.39
2022-10-07T04:28:45.698Z,92.49
2022-10-07T04:31:23.954Z,91.99
2022-10-07T04:33:51.289Z,92.15
2022-10-07T04:36:17.780Z,92.29
2022-10-07T04:38:50.293Z,92.15
2022-10-07T04:41:27.205Z,92.52
2022-10-07T04:43:57.545Z,92.53
2022-10-07T04:46:24.712Z,91.95
2022-10-07T04:48:51.291Z,92.29
2022-10-07T04:51:17.847Z,91.80
2022-10-07T04:53:44.369Z,92.51
2022-10-07T04:56:11.230Z,92.28
2022-10-07T04:58:38.018Z,92.12
2022-10-07T05:01:09.544Z,91.95
2022-10-07T05:03:41.873Z,92.19
2022-10-07T05:06:09.073Z,92.28
2022-10-07T05:08:35.746Z,91.65
2022-10-07T05:11:03.332Z,92.03
2022-10-07T05:13:30.970Z,91.72
2022-10-07T05:16:00.172Z,92.02
2022-10-07T05:18:28.149Z,91.84
2022-10-07T05:20:55.362Z,92.01
2022-10-07T05:23:28.106Z,91.67
2022-10-07T05:25:59.983Z,91.65
2022-10-07T05:28:27.100Z,92.09
2022-10-07T05:31:09.072Z,92.28
2022-10-07T05:33:36.339Z,92.49
2022-10-07T05:36:03.665Z,91.88
2022-10-07T05:38:30.186Z,92.10
2022-10-07T05:41:01.890Z,92.36
2022-10-07T05:43:30.556Z,92.14
2022-10-07T05:46:10.339Z,92.47
2022-10-07T05:48:39.590Z,92.62
2022-10-07T05:51:09.893Z,92.54
2022-10-07T05:53:36.522Z,92.85
2022-10-07T05:56:07.420Z,92.77
2022-10-07T05:58:38.125Z,92.52
2022-10-07T06:01:11.458Z,92.52
2022-10-07T06:03:42.882Z,92.68
2022-10-07T06:06:25.983Z,92.72
2022-10-07T06:08:53.696Z,92.79
2022-10-07T06:11:39.239Z,93.00
2022-10-07T06:14:23.141Z,93.26
2022-10-07T06:16:49.710Z,93.19
2022-10-07T06:19:22.588Z,93.09
2022-10-07T06:21:49.868Z,93.24
2022-10-07T06:24:17.359Z,93.29
2022-10-07T06:26:43.824Z,93.57
2022-10-07T06:29:10.584Z,93.47
2022-10-07T06:31:37.130Z,93.32
2022-10-07T06:34:03.600Z,93.59
2022-10-07T06:36:30.052Z,93.48
2022-10-07T06:38:56.559Z,93.69
2022-10-07T06:41:23.559Z,93.39
2022-10-07T06:43:54.516Z,93.69
2022-10-07T06:46:21.054Z,93.39
2022-10-07T06:48:48.038Z,93.64
2022-10-07T06:51:19.940Z,93.64
2022-10-07T06:53:50.525Z,93.66
2022-10-07T06:56:17.277Z,94.09
2022-10-07T06:58:44.638Z,94.00
2022-10-07T07:01:16.904Z,93.47
2022-10-07T07:03:43.473Z,93.75
2022-10-07T07:06:11.202Z,93.93
2022-10-07T07:08:53.698Z,93.10
2022-10-07T07:11:40.788Z,93.17
2022-10-07T07:14:14.835Z,92.87
2022-10-07T07:16:43.775Z,93.06
2022-10-07T07:19:14.730Z,92.74
2022-10-07T07:21:41.824Z,92.51
2022-10-07T07:24:32.724Z,92.53
2022-10-07T07:26:59.202Z,92.11
2022-10-07T07:29:26.597Z,91.97
2022-10-07T07:31:53.338Z,91.36
2022-10-07T07:34:20.146Z,91.57
2022-10-07T07:36:53.796Z,91.67
2022-10-07T07:39:20.920Z,91.13
2022-10-07T07:41:52.626Z,91.06
2022-10-07T07:44:19.578Z,91.14
2022-10-07T07:46:51.174Z,90.76
2022-10-07T07:49:18.565Z,90.71
2022-10-07T07:51:45.822Z,90.60
2022-10-07T07:54:13.260Z,90.34
2022-10-07T07:56:40.029Z,90.17
2022-10-07T07:59:08.272Z,90.36
2022-10-07T08:02:05.655Z,88.84
2022-10-07T08:04:32.337Z,88.20
2022-10-07T08:06:58.963Z,86.96
2022-10-07T08:09:25.748Z,87.66
2022-10-07T08:11:52.285Z,86.31
2022-10-07T08:14:18.816Z,85.23
2022-10-07T08:16:45.456Z,83.72
2022-10-07T08:19:12.526Z,84.19
2022-10-07T08:21:39.793Z,83.51
2022-10-07T08:24:08.358Z,83.10
2022-10-07T08:26:35.665Z,81.65
2022-10-07T08:29:02.299Z,80.52
2022-10-07T08:31:35.725Z,80.44
2022-10-07T08:34:05.302Z,80.08
2022-10-07T08:36:34.888Z,78.87
2022-10-07T08:39:04.477Z,76.89
2022-10-07T08:41:34.006Z,77.27
2022-10-07T08:44:24.327Z,77.08
2022-10-07T08:47:10.958Z,75.89
2022-10-07T08:49:44.285Z,75.79
2022-10-07T08:52:32.884Z,76.38
2022-10-07T08:55:04.264Z,76.59
2022-10-07T08:57:37.311Z,76.62
2022-10-07T09:00:07.114Z,76.12
2022-10-07T09:02:39.831Z,75.79
2022-10-07T09:05:33.682Z,75.11
2022-10-07T09:08:05.140Z,73.74
2022-10-07T09:10:37.426Z,73.77
2022-10-07T09:13:13.164Z,73.58
2022-10-07T09:15:45.356Z,72.66
2022-10-07T09:18:17.797Z,72.73
2022-10-07T09:20:52.375Z,73.14
2022-10-07T09:23:21.443Z,72.75
2022-10-07T09:25:47.984Z,71.71
2022-10-07T09:28:17.426Z,71.67
2022-10-07T09:30:44.232Z,71.79
2022-10-07T09:33:21.910Z,70.64
2022-10-07T09:35:57.537Z,70.68
2022-10-07T09:38:41.041Z,69.88
2022-10-07T09:41:15.570Z,69.47
2022-10-07T09:44:08.633Z,68.73
2022-10-07T09:47:21.159Z,68.82
2022-10-07T09:49:54.960Z,67.09
2022-10-07T09:52:24.318Z,66.63
2022-10-07T09:54:53.762Z,66.13
2022-10-07T09:57:28.365Z,64.79
2022-10-07T10:00:13.208Z,65.07
2022-10-07T10:02:43.373Z,65.59
2022-10-07T10:05:21.021Z,63.67
2022-10-07T10:07:52.770Z,63.13
2022-10-07T10:10:24.000Z,63.49
2022-10-07T10:12:52.895Z,63.42
2022-10-07T10:15:44.916Z,62.25
2022-10-07T10:18:42.144Z,61.24
2022-10-07T10:21:30.294Z,61.52
2022-10-07T10:24:06.357Z,59.77
2022-10-07T10:27:13.417Z,59.77
2022-10-07T10:29:54.848Z,60.83
2022-10-07T10:32:35.081Z,60.62
2022-10-07T10:35:31.898Z,59.77
2022-10-07T10:38:01.317Z,59.52
2022-10-07T10:40:42.128Z,59.02
2022-10-07T10:43:16.961Z,56.99
2022-10-07T10:46:02.117Z,55.28
2022-10-07T10:48:42.539Z,58.28
2022-10-07T10:51:24.062Z,55.41
2022-10-07T10:54:18.511Z,57.57
2022-10-07T10:56:55.116Z,55.85
2022-10-07T10:59:33.418Z,56.21
2022-10-07T11:02:41.299Z,56.00
2022-10-07T11:05:24.587Z,54.84
2022-10-07T11:07:56.334Z,53.98
2022-10-07T11:10:35.227Z,53.01
2022-10-07T11:13:36.653Z,53.34
2022-10-07T11:16:36.576Z,53.84
2022-10-07T11:19:20.114Z,51.15
2022-10-07T11:21:50.389Z,52.96
2022-10-07T11:24:39.407Z,51.42
2022-10-07T11:27:21.214Z,50.04
2022-10-07T11:29:53.735Z,50.42
2022-10-07T11:32:35.794Z,50.84
2022-10-07T11:35:32.083Z,49.73
2022-10-07T11:38:10.321Z,49.25
2022-10-07T11:40:50.657Z,46.26
2022-10-07T11:43:25.864Z,47.20
2022-10-07T11:45:58.889Z,48.37
2022-10-07T11:48:36.464Z,46.86
2022-10-07T11:51:05.712Z,47.24
2022-10-07T11:53:39.866Z,46.23
2022-10-07T11:56:17.176Z,47.74
2022-10-07T11:58:44.747Z,46.84
2022-10-07T12:01:28.636Z,46.99
2022-10-07T12:04:00.195Z,46.18
2022-10-07T12:06:27.055Z,42.29
2022-10-07T12:08:54.559Z,44.54
2022-10-07T12:11:24.695Z,43.97
2022-10-07T12:13:54.429Z,42.16
2022-10-07T12:16:24.080Z,42.84
2022-10-07T12:19:11.035Z,43.90
2022-10-07T12:22:03.002Z,44.26
2022-10-07T12:24:32.113Z,42.90
2022-10-07T12:27:06.168Z,44.43
2022-10-07T12:29:43.617Z,44.19
2022-10-07T12:32:47.783Z,43.73
2022-10-07T12:35:30.004Z,43.59
2022-10-07T12:38:23.586Z,46.29
2022-10-07T12:40:59.652Z,44.13
2022-10-07T12:43:38.355Z,44.26
2022-10-07T12:46:09.948Z,45.67
2022-10-07T12:48:41.681Z,44.21
2022-10-07T12:51:26.209Z,44.01
2022-10-07T12:53:53.827Z,43.14
2022-10-07T12:56:28.111Z,42.61
2022-10-07T12:59:33.705Z,44.15
2022-10-07T13:02:31.454Z,46.84
2022-10-07T13:05:18.249Z,45.07
2022-10-07T13:08:22.593Z,45.49
2022-10-07T13:11:15.436Z,46.08
2022-10-07T13:14:11.498Z,43.93
2022-10-07T13:16:48.467Z,45.01
2022-10-07T13:19:39.352Z,44.08
2022-10-07T13:22:13.776Z,43.47
2022-10-07T13:24:46.447Z,44.76
2022-10-07T13:27:28.478Z,43.89
2022-10-07T13:30:00.879Z,43.72
2022-10-07T13:32:34.365Z,43.34
2022-10-07T13:35:29.828Z,45.14
2022-10-07T13:37:56.485Z,44.72
2022-10-07T13:40:28.440Z,45.44
2022-10-07T13:42:59.193Z,45.33
2022-10-07T13:45:27.248Z,45.29
2022-10-07T13:47:54.686Z,46.87
2022-10-07T13:50:29.417Z,45.82
2022-10-07T13:52:57.466Z,45.16
2022-10-07T13:55:35.727Z,45.99
2022-10-07T13:58:04.503Z,45.39
2022-10-07T14:00:40.541Z,47.01
2022-10-07T14:03:17.938Z,45.80
2022-10-07T14:05:51.893Z,44.14
2022-10-07T14:08:24.128Z,43.74
2022-10-07T14:11:02.681Z,44.81
2022-10-07T14:13:31.115Z,44.25
2022-10-07T14:15:59.329Z,43.72
2022-10-07T14:18:29.773Z,43.49
2022-10-07T14:21:08.738Z,44.59
2022-10-07T14:23:37.820Z,44.96
2022-10-07T14:26:14.277Z,45.87
2022-10-07T14:28:43.063Z,43.40
2022-10-07T14:31:30.037Z,44.23
2022-10-07T14:34:15.298Z,43.60
2022-10-07T14:37:08.229Z,44.17
2022-10-07T14:39:44.843Z,42.46
2022-10-07T14:42:15.434Z,45.34
2022-10-07T14:44:45.677Z,43.51
2022-10-07T14:47:13.314Z,42.27
2022-10-07T14:49:43.310Z,41.56
2022-10-07T14:52:31.127Z,42.75
2022-10-07T14:55:00.445Z,42.49
2022-10-07T14:57:27.229Z,42.12
2022-10-07T14:59:53.985Z,43.92
2022-10-07T15:02:20.856Z,42.19
2022-10-07T15:04:47.606Z,39.46
2022-10-07T15:07:15.847Z,40.78
2022-10-07T15:09:44.125Z,42.19
2022-10-07T15:12:15.912Z,41.28
2022-10-07T15:14:42.727Z,42.50
2022-10-07T15:17:12.096Z,41.69
2022-10-07T15:19:38.874Z,42.34
2022-10-07T15:22:05.755Z,42.94
2022-10-07T15:24:33.221Z,44.31
2022-10-07T15:27:02.681Z,45.19
2022-10-07T15:29:29.138Z,46.07
2022-10-07T15:31:55.679Z,45.29
2022-10-07T15:34:22.761Z,45.51
2022-10-07T15:36:50.405Z,46.01
2022-10-07T15:39:16.918Z,46.45
2022-10-07T15:41:44.359Z,46.80
2022-10-07T15:44:16.471Z,46.56
2022-10-07T15:46:44.404Z,47.51
2022-10-07T15:49:10.934Z,48.17
2022-10-07T15:51:37.863Z,47.95
2022-10-07T15:54:06.542Z,48.11
2022-10-07T15:56:33.933Z,48.37
2022-10-07T15:59:02.264Z,49.04
2022-10-07T16:01:31.948Z,49.78
2022-10-07T16:04:00.064Z,49.71
2022-10-07T16:06:28.724Z,50.44
2022-10-07T16:08:56.796Z,51.16
2022-10-07T16:11:26.013Z,51.79
2022-10-07T16:13:52.921Z,53.36
2022-10-07T16:16:22.825Z,53.91
2022-10-07T16:18:51.061Z,54.48
2022-10-07T16:21:30.350Z,54.06
2022-10-07T16:24:00.987Z,54.18
2022-10-07T16:26:30.243Z,54.14
2022-10-07T16:29:19.329Z,54.16
2022-10-07T16:31:47.689Z,54.76
2022-10-07T16:34:17.155Z,55.30
2022-10-07T16:36:48.107Z,56.00
2022-10-07T16:39:17.738Z,56.16
2022-10-07T16:41:46.380Z,56.76
2022-10-07T16:44:14.332Z,58.49
2022-10-07T16:46:41.954Z,59.80
2022-10-07T16:49:12.368Z,59.77
2022-10-07T16:51:38.961Z,59.24
2022-10-07T16:54:12.635Z,59.35
2022-10-07T16:56:47.059Z,59.79
2022-10-07T16:59:21.934Z,60.59
2022-10-07T17:01:51.021Z,60.91
2022-10-07T17:04:18.162Z,61.32
2022-10-07T17:06:46.403Z,61.33
2022-10-07T17:09:13.897Z,61.39
2022-10-07T17:11:41.401Z,61.62
2022-10-07T17:14:19.290Z,63.32
2022-10-07T17:16:50.740Z,63.96
2022-10-07T17:19:22.699Z,64.86
2022-10-07T17:21:52.739Z,65.08
2022-10-07T17:24:21.395Z,65.71
2022-10-07T17:26:49.095Z,66.45
2022-10-07T17:29:18.335Z,67.36
2022-10-07T17:31:49.463Z,67.77
2022-10-07T17:34:16.820Z,68.61
2022-10-07T17:36:48.000Z,69.65
2022-10-07T17:39:14.785Z,69.98
2022-10-07T17:41:41.376Z,70.74
2022-10-07T17:44:11.674Z,71.12
2022-10-07T17:46:39.912Z,71.43
2022-10-07T17:49:08.422Z,72.09
2022-10-07T17:51:35.196Z,72.93
2022-10-07T17:54:03.264Z,73.94
2022-10-07T17:56:31.943Z,73.83
2022-10-07T17:58:59.158Z,74.90
2022-10-07T18:01:29.377Z,74.82
2022-10-07T18:04:08.026Z,74.62
2022-10-07T18:06:36.917Z,73.54
2022-10-07T18:09:13.468Z,73.72
2022-10-07T18:11:58.484Z,73.54
2022-10-07T18:14:43.408Z,73.96
2022-10-07T18:17:11.235Z,74.24
2022-10-07T18:19:39.652Z,74.45
2022-10-07T18:22:06.188Z,74.83
2022-10-07T18:24:36.189Z,74.77
2022-10-07T18:27:02.956Z,74.70
2022-10-07T18:29:32.074Z,73.49
2022-10-07T18:31:59.759Z,73.91
2022-10-07T18:34:26.513Z,73.92
2022-10-07T18:36:56.536Z,73.77
2022-10-07T18:39:24.256Z,74.30
2022-10-07T18:41:51.467Z,74.47
2022-10-07T18:44:17.986Z,75.42
2022-10-07T18:46:45.170Z,76.22
2022-10-07T18:49:13.839Z,75.97
2022-10-07T18:51:40.959Z,76.37
2022-10-07T18:54:07.672Z,76.84
2022-10-07T18:56:38.428Z,77.46
2022-10-07T18:59:07.644Z,77.29
2022-10-07T19:01:34.362Z,77.62
2022-10-07T19:04:03.638Z,77.68
2022-10-07T19:06:33.404Z,78.21
2022-10-07T19:09:11.323Z,78.47
2022-10-07T19:11:37.868Z,79.15
2022-10-07T19:14:04.302Z,79.56
2022-10-07T19:16:38.247Z,79.30
2022-10-07T19:19:17.221Z,79.40
2022-10-07T19:21:47.458Z,79.85
2022-10-07T19:24:14.933Z,79.83
2022-10-07T19:26:48.979Z,79.83
2022-10-07T19:29:18.024Z,80.08
2022-10-07T19:31:49.812Z,80.05
2022-10-07T19:34:19.261Z,80.49
2022-10-07T19:36:49.972Z,80.64
2022-10-07T19:39:21.941Z,80.80
2022-10-07T19:41:49.052Z,80.64
2022-10-07T19:44:16.372Z,80.42
2022-10-07T19:46:42.902Z,80.22
2022-10-07T19:49:10.373Z,79.75
2022-10-07T19:51:37.303Z,79.58
2022-10-07T19:54:10.148Z,79.52
2022-10-07T19:56:37.980Z,79.42
2022-10-07T19:59:08.194Z,79.64
2022-10-07T20:01:37.874Z,80.02
2022-10-07T20:04:06.718Z,79.98
2022-10-07T20:06:36.565Z,80.07
2022-10-07T20:09:05.005Z,80.04
2022-10-07T20:11:32.811Z,80.16
2022-10-07T20:13:59.957Z,79.64
2022-10-07T20:16:27.639Z,79.97
2022-10-07T20:19:01.149Z,79.42
2022-10-07T20:21:28.678Z,79.87
2022-10-07T20:23:55.448Z,80.13
2022-10-07T20:26:34.037Z,80.30
2022-10-07T20:29:02.562Z,80.24
2022-10-07T20:31:35.315Z,80.42
2022-10-07T20:34:02.727Z,80.35
2022-10-07T20:36:31.788Z,80.62
2022-10-07T20:39:32.148Z,80.90
2022-10-07T20:42:17.764Z,81.72
2022-10-07T20:44:44.297Z,81.84
2022-10-07T20:47:12.812Z,81.75
2022-10-07T20:49:41.659Z,82.04
2022-10-07T20:52:14.617Z,82.16
2022-10-07T20:54:41.538Z,82.35
2022-10-07T20:57:08.149Z,82.32
2022-10-07T20:59:34.755Z,81.79
2022-10-07T21:02:04.873Z,81.55
2022-10-07T21:04:32.837Z,81.50
2022-10-07T21:06:59.776Z,80.67
2022-10-07T21:09:26.403Z,79.92
2022-10-07T21:11:54.708Z,80.24
2022-10-07T21:14:22.702Z,79.77
2022-10-07T21:16:49.767Z,79.94
2022-10-07T21:19:17.176Z,79.79
2022-10-07T21:21:43.759Z,80.03
2022-10-07T21:24:10.823Z,80.08
2022-10-07T21:26:37.708Z,79.65
2022-10-07T21:29:06.957Z,79.58
2022-10-07T21:31:35.669Z,79.23
2022-10-07T21:34:07.851Z,79.55
2022-10-07T21:36:38.444Z,80.27
2022-10-07T21:39:05.504Z,80.38
2022-10-07T21:41:40.535Z,80.39
2022-10-07T21:44:10.871Z,80.50
2022-10-07T21:46:38.757Z,81.04
2022-10-07T21:49:06.392Z,81.25
2022-10-07T21:51:34.451Z,80.81
2022-10-07T21:54:02.225Z,80.75
2022-10-07T21:56:31.277Z,80.64
2022-10-07T21:59:00.608Z,80.76
2022-10-07T22:01:28.360Z,80.97
2022-10-07T22:04:05.007Z,80.78
2022-10-07T22:06:50.129Z,81.01
2022-10-07T22:09:20.221Z,81.36
2022-10-07T22:11:48.878Z,81.42
2022-10-07T22:14:15.423Z,81.77
2022-10-07T22:16:42.429Z,81.43
2022-10-07T22:19:09.253Z,81.42
2022-10-07T22:21:39.935Z,81.77
2022-10-07T22:24:08.396Z,82.34
2022-10-07T22:26:53.099Z,82.69
2022-10-07T22:29:21.554Z,82.56
2022-10-07T22:31:48.088Z,82.99
2022-10-07T22:34:34.399Z,83.05
2022-10-07T22:37:01.710Z,83.26
2022-10-07T22:39:29.313Z,83.37
2022-10-07T22:41:56.653Z,83.43
2022-10-07T22:44:23.176Z,83.36
2022-10-07T22:46:49.718Z,83.47
2022-10-07T22:49:16.317Z,83.52
2022-10-07T22:51:43.156Z,83.32
2022-10-07T22:54:11.928Z,82.99
2022-10-07T22:56:38.708Z,83.06
2022-10-07T22:59:06.555Z,83.04
2022-10-07T23:01:33.024Z,82.82
2022-10-07T23:04:03.285Z,82.72
2022-10-07T23:06:34.631Z,82.58
2022-10-07T23:09:02.547Z,82.57
2022-10-07T23:11:30.402Z,82.93
2022-10-07T23:13:56.987Z,83.09
2022-10-07T23:16:26.685Z,83.19
2022-10-07T23:18:53.600Z,83.42
2022-10-07T23:21:26.092Z,83.59
2022-10-07T23:23:56.640Z,83.51
2022-10-07T23:26:27.239Z,83.82
2022-10-07T23:28:56.317Z,83.93
2022-10-07T23:31:27.228Z,83.91
2022-10-07T23:33:55.277Z,84.38
2022-10-07T23:36:23.024Z,84.30
2022-10-07T23:38:50.520Z,84.65
2022-10-07T23:41:20.171Z,84.43
2022-10-07T23:43:51.437Z,84.40
2022-10-07T23:46:19.638Z,84.34
2022-10-07T23:48:47.056Z,84.99
2022-10-07T23:51:16.656Z,85.13
2022-10-07T23:53:43.194Z,85.64
2022-10-07T23:56:09.652Z,85.54
2022-10-07T23:58:36.864Z,85.77
